默认 日期 大小 文件数 浏览量 最新下载 xml
17 06 08磁力链接相关资源由用户搜索指令自动获取,结果来源于网络,本站不存储任何资料,亦不承担任何责任,请于24小时内删除,搜索到597个磁力,用时34ms。
    {"gogobarauditions.17.08.06.raya.gorgeous.thai.teen.uses.her.pussy.to.get.hired.mp4": 724691204}
创建时间: 2019-03-27 01:31:31 大小:691.12 MB 文件数量:1 热度:14 最近下载:2025-07-29 22:53:01
    {"zzs.17.08.06.romi.rain.queen.of.thrones.part.2.a.xxx.parody[N1C].mp4": 2835863644}
创建时间: 2019-04-01 03:00:13 大小:2.64 GB 文件数量:1 热度:36 最近下载:2024-11-11 12:47:01
    {"adrianna-kitchen_dl-720[N1C].mp4": 643889384}
创建时间: 2019-04-20 11:42:25 大小:614.06 MB 文件数量:1 热度:7 最近下载:2024-12-04 12:39:02
    {"spizoo.17.08.06.gina.valentina.private.tape[N1C].mp4": 2019812880}
创建时间: 2019-04-25 00:18:28 大小:1.88 GB 文件数量:1 热度:9 最近下载:2025-03-21 09:42:02
    {"Sample": {"ftx.17.08.06.jai.james-sample.mp4": 51335595}, "ftx.17.08.06.jai.james.mp4": 1193265033, "ftx.17.08.06.jai.james.nfo": 5261}
创建时间: 2019-04-29 01:11:36 大小:1.16 GB 文件数量:3 热度:11 最近下载:2024-07-02 00:58:03
    {"nubiles.17.08.06.tetti.dew.korti.morning.joy[N1C].mp4": 2185280188}
创建时间: 2019-04-29 20:36:54 大小:2.04 GB 文件数量:1 热度:10 最近下载:2025-07-08 07:23:01
    {"i.ot170806ks.mp4": 46725072}
创建时间: 2019-04-30 20:14:00 大小:44.56 MB 文件数量:1 热度:7 最近下载:2024-09-04 06:47:02
    {"zzs.17.08.06.romi.rain.queen.of.thrones.part.2.a.xxx.parody.mp4": 2835863644}
创建时间: 2019-05-12 14:18:00 大小:2.64 GB 文件数量:1 热度:26 最近下载:2025-04-22 20:53:02
    {"xart.17.08.06.susie.up.close.and.personal.mp4": 1143232455}
创建时间: 2019-05-13 13:34:55 大小:1.06 GB 文件数量:1 热度:5 最近下载:2025-04-11 03:51:01
    {"boxtrucksex.17.08.06.jimena.lago.mp4": 4077473656}
创建时间: 2019-05-18 00:24:36 大小:3.8 GB 文件数量:1 热度:17 最近下载:2025-04-01 21:38:03
    {"metartx.17.08.06.lucy.li.lucy.mp4": 564475791}
创建时间: 2019-05-23 21:49:11 大小:538.33 MB 文件数量:1 热度:8 最近下载:2025-01-15 08:54:03
    {"RS - [VGP-285] 1985.04.08+1985.06.17 High Temperature,": {"CD1": {"01 Track01 ... ": 23973214, "06 Track06.flac": 24815520, "07 Track07.flac": 31003630, "08 Track08.flac ... ": 21773126, "06 Track06.flac": 34998725, "07 Track07.flac": 40166367, "08 Track08.flac ...
创建时间: 2019-06-11 04:34:28 大小:694.4 MB 文件数量:30 热度:12 最近下载:2025-08-02 22:30:10
    {"RARBG.txt": 30, "EuroGirlsOnGirls.17.08.06.Satine.Spark.And.Sicilia.XXX.SD.MP4-KLEENEX.mp4": 153586232}
创建时间: 2019-06-16 15:53:03 大小:146.47 MB 文件数量:2 热度:8 最近下载:2024-01-07 16:27:05
    {"wy.17.08.06.jenna.sativa.kasey.warner.jojo.kiss.and.gia.paige.pizza.delivery.girl.mp4": 2464502140}
创建时间: 2019-08-09 01:39:20 大小:2.3 GB 文件数量:1 热度:18 最近下载:2024-10-06 04:45:01
    ... -gl.2019-08-06-04-17-07.zip": 77984402, "bitly_6.2019-08-06-04-17-07 ... -08-06-04-17-07.zip": 1026, "urlteam_2019-08-06-04-17-07_meta.xml": 694, "urlteam_2019-08-06 ... -04-17 ...
创建时间: 2019-09-01 16:57:26 大小:281.44 MB 文件数量:8 热度:4 最近下载:2022-11-15 19:48:59
    {"ieva.nfo": 2115, "RARBG.txt": 30, "file_id.diz": 394, "img_0001.jpg": 1800758, "img_0002.jpg": 1539481, "img_0003.jpg": 2241286, "img_0004.jpg": 1715158, "img_0005.jpg": 1363146, "img_0006.jpg": 1616129, "img_0007.jpg": 1475560, "img_0008.jpg": 1801306, ...
创建时间: 2019-09-02 05:52:35 大小:208.98 MB 文件数量:137 热度:9 最近下载:2025-08-05 14:41:05
    {"boxtrucksex.17.08.06.jimena.lago[N1C].mp4": 4077473656}
创建时间: 2019-10-10 05:41:20 大小:3.8 GB 文件数量:1 热度:17 最近下载:2025-04-01 21:36:02
    {"wankitnow.17.08.06.faye.dirty.old.wanker.part.1[N1C].mp4": 491864323}
创建时间: 2019-11-03 02:51:44 大小:469.08 MB 文件数量:1 热度:4 最近下载:2025-01-03 23:11:05
    {"metart.17.08.06.kalisy.tablet.stories.mp4": 402906435}
创建时间: 2020-03-04 20:57:33 大小:384.24 MB 文件数量:1 热度:6 最近下载:2023-12-26 18:25:04
    {"viparea.17.08.06.malena.morgan.in.deep.mp4": 707448708}
创建时间: 2020-04-16 11:57:53 大小:674.68 MB 文件数量:1 热度:15 最近下载:2024-01-09 21:37:04